Time;durP1;ratioP1;P1;durP2;ratioP2;P2;SDS_P1;SDS_P2;PMS_P1;PMS_P2;Temp;Humidity;BMP_temperature;BMP_pressure;BME280_temperature;BME280_humidity;BME280_pressure;Samples;Min_cycle;Max_cycle;Signal;HPM_P1;HPM_P2
2024/01/21 00:01:02;;;;;;;1.55;0.45;;;;;;;27.81;26.60;98984.41;7395405;19;20048;-61
2024/01/21 00:03:36;;;;;;;0.75;0.30;;;;;;;28.53;26.00;98974.00;7399714;19;20011;-63
2024/01/21 00:06:13;;;;;;;0.10;0.10;;;;;;;28.61;25.91;98986.00;7398938;19;20481;-63
2024/01/21 00:08:56;;;;;;;0.50;0.50;;;;;;;29.19;25.97;98997.47;7397540;19;20021;-62
2024/01/21 00:11:31;;;;;;;5.97;1.27;;;;;;;28.97;25.85;98979.63;7396786;19;20021;-60
2024/01/21 00:14:04;;;;;;;2.15;0.40;;;;;;;28.47;26.38;98980.13;7399642;19;20018;-60
2024/01/21 00:16:42;;;;;;;;;;;;;;;28.36;26.50;98978.00;7397816;19;20034;-60
2024/01/21 00:19:11;;;;;;;2.80;1.23;;;;;;;29.05;25.98;98970.75;7392491;19;19923;-60
2024/01/21 00:21:46;;;;;;;1.75;0.60;;;;;;;29.35;25.82;98963.97;7395712;19;20035;-60
2024/01/21 00:24:27;;;;;;;5.00;1.40;;;;;;;30.48;24.70;98953.91;7394485;19;20022;-60
2024/01/21 00:27:12;;;;;;;7.93;0.95;;;;;;;30.98;24.22;98947.22;7397348;19;20670;-60
2024/01/21 00:29:52;;;;;;;0.30;0.30;;;;;;;30.33;24.58;98950.91;7395157;19;20014;-63
2024/01/21 00:32:42;;;;;;;0.85;0.63;;;;;;;29.11;25.51;98945.31;7395873;19;20036;-63
2024/01/21 00:35:19;;;;;;;0.22;0.22;;;;;;;29.56;25.85;98931.47;7396127;19;20366;-63
2024/01/21 00:37:54;;;;;;;0.28;0.28;;;;;;;29.58;25.38;98920.84;7392661;19;20038;-63
2024/01/21 00:40:38;;;;;;;1.55;1.02;;;;;;;29.70;25.48;98918.66;7398695;19;20010;-62
2024/01/21 00:43:12;;;;;;;1.00;0.63;;;;;;;29.78;25.46;98907.66;7397117;19;20029;-63
2024/01/21 00:45:53;;;;;;;2.30;0.90;;;;;;;29.48;25.74;98900.19;7400354;19;20011;-63
2024/01/21 00:48:27;;;;;;;0.30;0.30;;;;;;;29.70;25.67;98886.34;7394937;19;20027;-62
2024/01/21 00:51:03;;;;;;;1.15;0.75;;;;;;;28.85;25.86;98884.28;7394885;19;20037;-63
2024/01/21 00:53:40;;;;;;;0.30;0.30;;;;;;;28.26;26.40;98879.97;7399068;19;20090;-63
2024/01/21 00:56:14;;;;;;;0.20;0.20;;;;;;;28.17;26.80;98872.28;7392560;19;20011;-62
2024/01/21 00:58:52;;;;;;;0.77;0.65;;;;;;;27.98;27.44;98868.91;7389432;19;20014;-63
2024/01/21 01:01:26;;;;;;;0.65;0.57;;;;;;;28.40;26.99;98863.66;7396037;19;20013;-63
2024/01/21 01:04:15;;;;;;;2.05;1.05;;;;;;;28.30;26.85;98865.91;7398322;19;20022;-62
2024/01/21 01:06:52;;;;;;;0.30;0.30;;;;;;;29.01;26.52;98864.44;7392844;19;20114;-62
2024/01/21 01:09:27;;;;;;;2.65;0.73;;;;;;;28.68;26.82;98858.91;7395275;19;20014;-62
2024/01/21 01:12:16;;;;;;;0.10;0.10;;;;;;;28.56;26.66;98857.41;7392896;19;20007;-63
2024/01/21 01:15:11;;;;;;;0.22;0.22;;;;;;;28.64;26.89;98860.78;7396788;19;20474;-63
2024/01/21 01:18:08;;;;;;;2.90;1.27;;;;;;;30.41;25.98;98853.63;7394079;19;20022;-62
2024/01/21 01:20:53;;;;;;;1.17;0.85;;;;;;;29.33;26.12;98842.63;7394231;19;20659;-62
2024/01/21 01:23:22;;;;;;;0.45;0.45;;;;;;;30.19;25.44;98843.84;7396472;19;20007;-62
2024/01/21 01:26:11;;;;;;;1.33;1.23;;;;;;;29.54;26.43;98837.38;7395185;19;20018;-63
2024/01/21 01:29:03;;;;;;;0.60;0.43;;;;;;;31.79;24.71;98819.59;7395438;19;20332;-55
2024/01/21 01:31:32;;;;;;;0.30;0.30;;;;;;;31.33;24.73;98826.00;7399282;19;20037;-55
2024/01/21 01:34:11;;;;;;;0.57;0.52;;;;;;;31.09;25.11;98808.28;7398340;19;20010;-56
2024/01/21 01:36:39;;;;;;;0.10;0.10;;;;;;;31.07;25.02;98796.69;7394071;19;20021;-55
2024/01/21 01:39:17;;;;;;;1.17;0.35;;;;;;;30.29;26.06;98786.91;7392598;19;20014;-56
2024/01/21 01:41:55;;;;;;;0.55;0.45;;;;;;;30.30;26.20;98789.13;7394725;19;20010;-55
2024/01/21 01:44:24;;;;;;;0.57;0.30;;;;;;;29.32;26.51;98781.66;7395433;19;20010;-55
2024/01/21 01:46:53;;;;;;;0.40;0.22;;;;;;;29.44;26.35;98776.56;7391697;19;20015;-55
2024/01/21 01:49:28;;;;;;;0.70;0.13;;;;;;;28.55;27.27;98793.63;7392445;19;20014;-55
2024/01/21 01:52:00;;;;;;;2.28;0.40;;;;;;;27.97;27.88;98793.72;7394322;19;20042;-56
2024/01/21 01:54:50;;;;;;;1.75;0.40;;;;;;;28.19;27.84;98789.34;7395993;19;20018;-55
2024/01/21 01:57:30;;;;;;;0.30;0.30;;;;;;;27.53;28.65;98768.03;7393472;19;20011;-55
2024/01/21 02:00:06;;;;;;;0.60;0.35;;;;;;;26.72;29.30;98773.47;7396964;19;20017;-55
2024/01/21 02:02:48;;;;;;;0.28;0.28;;;;;;;26.70;29.67;98768.38;7394855;19;20409;-55
2024/01/21 02:05:36;;;;;;;0.20;0.20;;;;;;;27.68;28.83;98747.53;7395833;19;20016;-55
2024/01/21 02:08:35;;;;;;;1.85;0.45;;;;;;;27.75;28.58;98763.69;7393878;19;20033;-56
2024/01/21 02:11:12;;;;;;;0.30;0.28;;;;;;;27.91;28.62;98761.09;7394094;19;20007;-55
2024/01/21 02:13:56;;;;;;;0.32;0.10;;;;;;;28.50;28.18;98752.53;7396312;19;20007;-55
2024/01/21 02:16:40;;;;;;;5.13;0.73;;;;;;;27.95;28.77;98744.91;7393922;19;20024;-55
2024/01/21 02:19:34;;;;;;;0.60;0.60;;;;;;;28.82;27.87;98744.34;7391369;19;20070;-55
2024/01/21 02:22:05;;;;;;;2.17;0.30;;;;;;;28.56;28.24;98742.81;7392874;19;20007;-55
2024/01/21 02:24:39;;;;;;;18.35;0.45;;;;;;;28.76;28.20;98744.00;7391515;19;20039;-55
2024/01/21 02:27:09;;;;;;;1.10;1.05;;;;;;;29.21;27.45;98739.44;7391838;19;20014;-55
2024/01/21 02:29:48;;;;;;;0.60;0.38;;;;;;;29.19;27.48;98745.78;7396146;19;20069;-55
2024/01/21 02:32:31;;;;;;;0.15;0.15;;;;;;;29.50;27.66;98748.22;7393429;19;20007;-55
2024/01/21 02:35:24;;;;;;;4.97;1.65;;;;;;;29.54;27.68;98741.97;7391985;19;20025;-55
2024/01/21 02:38:02;;;;;;;0.43;0.43;;;;;;;29.05;28.17;98742.13;7392873;19;20028;-55
2024/01/21 02:40:52;;;;;;;7.78;0.80;;;;;;;28.98;28.12;98730.94;7391606;19;20511;-55
2024/01/21 02:43:33;;;;;;;0.95;0.75;;;;;;;28.99;27.97;98738.16;7390764;19;20474;-55
2024/01/21 02:46:08;;;;;;;1.38;0.85;;;;;;;28.66;28.50;98731.94;7395568;19;20006;-55
2024/01/21 02:48:42;;;;;;;0.10;0.10;;;;;;;28.69;28.44;98722.88;7391419;19;20341;-55
2024/01/21 02:51:18;;;;;;;0.20;0.20;;;;;;;28.46;28.65;98720.03;7390243;19;20362;-55
2024/01/21 02:54:02;;;;;;;0.13;0.10;;;;;;;28.34;28.64;98700.03;7394119;19;20020;-55
2024/01/21 03:00:07;;;;;;;2.50;1.20;;;;;;;29.31;28.07;98681.88;7392400;19;20018;-62
2024/01/21 03:02:36;;;;;;;0.10;0.10;;;;;;;29.22;28.23;98686.44;7400093;19;20030;-63
2024/01/21 03:05:08;;;;;;;0.32;0.32;;;;;;;29.39;28.14;98683.06;7396597;19;20021;-84
2024/01/21 03:07:40;;;;;;;1.15;0.35;;;;;;;29.84;27.72;98663.97;7391095;19;20470;-87
2024/01/21 03:10:18;;;;;;;0.30;0.10;;;;;;;29.86;28.02;98666.22;7392344;19;20018;-87
2024/01/21 03:13:00;;;;;;;0.22;0.22;;;;;;;30.46;27.32;98657.81;7394207;19;20045;-86
2024/01/21 03:15:36;;;;;;;0.30;0.20;;;;;;;29.47;28.45;98677.03;7397878;19;20018;-86
2024/01/21 03:18:04;;;;;;;0.30;0.30;;;;;;;29.40;28.04;98670.22;7397129;19;20007;-86
2024/01/21 03:20:44;;;;;;;;;;;;;;;28.74;28.66;98672.25;7396203;19;20032;-86
2024/01/21 03:23:16;;;;;;;2.72;0.57;;;;;;;28.37;29.06;98678.72;7397112;19;19929;-87
2024/01/21 03:25:50;;;;;;;0.43;0.20;;;;;;;28.02;29.62;98695.28;7396705;19;20094;-86
2024/01/21 03:28:34;;;;;;;4.05;0.25;;;;;;;29.06;28.88;98697.00;7395008;19;20352;-86
2024/01/21 03:31:22;;;;;;;0.22;0.22;;;;;;;28.88;28.87;98681.63;7393444;19;20007;-86
2024/01/21 03:34:03;;;;;;;0.20;0.20;;;;;;;29.21;28.81;98684.94;7397066;19;20018;-86
2024/01/21 03:36:35;;;;;;;3.33;1.50;;;;;;;29.23;29.06;98676.47;7394743;19;20468;-86
2024/01/21 03:39:12;;;;;;;3.40;0.77;;;;;;;29.58;28.15;98688.41;7392313;19;20022;-86
2024/01/21 03:41:59;;;;;;;16.85;0.57;;;;;;;30.06;28.33;98675.13;7395864;19;20006;-95
2024/01/21 03:44:32;;;;;;;0.10;0.10;;;;;;;29.84;28.41;98672.56;7394270;19;20015;-88
2024/01/21 03:47:12;;;;;;;0.38;0.38;;;;;;;30.11;28.09;98656.69;7395958;19;20018;-90
2024/01/21 03:49:52;;;;;;;0.82;0.40;;;;;;;30.42;27.61;98680.59;7394167;19;20018;-89
2024/01/21 03:52:35;;;;;;;0.47;0.47;;;;;;;30.57;27.82;98679.16;7396078;19;20021;-89
2024/01/21 03:55:10;;;;;;;1.10;0.30;;;;;;;30.37;27.89;98683.91;7393509;19;20023;-89
2024/01/21 03:57:45;;;;;;;2.55;0.10;;;;;;;30.02;28.40;98689.28;7393087;19;20368;-89
2024/01/21 04:00:21;;;;;;;0.10;0.10;;;;;;;31.57;27.01;98694.00;7396758;19;20086;-89
2024/01/21 04:02:50;;;;;;;0.40;0.13;;;;;;;30.19;28.28;98698.06;7395080;19;20022;-89
2024/01/21 04:05:16;;;;;;;0.10;0.10;;;;;;;29.93;28.43;98688.13;7394654;19;20029;-89
2024/01/21 04:07:48;;;;;;;0.20;0.20;;;;;;;29.82;28.48;98689.69;7394467;19;20498;-89
2024/01/21 04:10:29;;;;;;;0.10;0.10;;;;;;;29.68;28.83;98686.06;7395183;19;20015;-89
2024/01/21 04:13:14;;;;;;;0.30;0.30;;;;;;;29.75;28.75;98687.91;7393069;19;20580;-89
2024/01/21 04:15:47;;;;;;;0.77;0.20;;;;;;;29.87;28.76;98687.78;7395876;19;20487;-89
2024/01/21 04:18:27;;;;;;;0.20;0.20;;;;;;;32.28;26.90;98678.47;7391768;19;20015;-89
2024/01/21 04:21:03;;;;;;;;;;;;;;;;;;;;;
2024/01/21 04:23:41;;;;;;;0.47;0.35;;;;;;;34.61;25.12;98686.69;7396808;19;20734;-88
2024/01/21 04:26:18;;;;;;;0.30;0.22;;;;;;;34.40;25.45;98681.59;7397717;19;20026;-89
2024/01/21 04:29:06;;;;;;;0.20;0.20;;;;;;;34.29;25.05;98680.53;7393569;19;20018;-89
2024/01/21 04:31:42;;;;;;;0.25;0.17;;;;;;;32.44;26.79;98679.16;7393473;19;20010;-89
2024/01/21 04:34:24;;;;;;;0.38;0.30;;;;;;;30.98;27.80;98679.75;7391589;19;20392;-89
2024/01/21 04:37:02;;;;;;;0.10;0.10;;;;;;;30.58;27.93;98686.41;7393923;19;20019;-89
2024/01/21 04:39:45;;;;;;;0.50;0.43;;;;;;;30.86;28.03;98693.56;7392798;19;20018;-88
2024/01/21 04:42:32;;;;;;;0.20;0.15;;;;;;;31.51;27.76;98690.88;7395752;19;20026;-89
2024/01/21 04:45:18;;;;;;;2.50;0.55;;;;;;;31.30;27.69;98678.41;7395535;19;20029;-89
2024/01/21 04:48:05;;;;;;;0.43;0.43;;;;;;;30.62;28.05;98670.09;7393476;19;20018;-89
2024/01/21 04:50:41;;;;;;;0.10;0.10;;;;;;;30.40;28.25;98662.50;7394045;19;20010;-89
2024/01/21 04:53:12;;;;;;;0.10;0.10;;;;;;;31.13;28.26;98658.91;7396104;19;20010;-89
2024/01/21 04:55:55;;;;;;;0.30;0.30;;;;;;;32.98;26.69;98659.72;7397204;19;20090;-89
2024/01/21 04:58:33;;;;;;;0.20;0.10;;;;;;;31.26;27.85;98663.81;7393666;19;20488;-89
2024/01/21 05:01:07;;;;;;;0.10;0.10;;;;;;;30.46;28.21;98662.81;7393268;19;20018;-90
2024/01/21 05:03:39;;;;;;;3.53;0.20;;;;;;;30.50;28.58;98674.50;7394951;19;20014;-89
2024/01/21 05:06:16;;;;;;;0.20;0.20;;;;;;;30.32;28.46;98673.63;7393241;19;20416;-89
2024/01/21 05:09:03;;;;;;;0.20;0.20;;;;;;;30.40;28.50;98662.50;7393518;19;20010;-89
2024/01/21 05:11:42;;;;;;;0.20;0.20;;;;;;;30.48;28.77;98669.41;7394467;19;20089;-89
2024/01/21 05:14:15;;;;;;;0.10;0.10;;;;;;;30.54;28.47;98677.56;7393262;19;20085;-90
2024/01/21 05:16:44;;;;;;;0.10;0.10;;;;;;;30.64;28.10;98683.81;7393242;19;20035;-89
2024/01/21 05:19:16;;;;;;;0.10;0.10;;;;;;;30.31;28.36;98692.97;7392197;19;20015;-89
2024/01/21 05:21:45;;;;;;;0.20;0.15;;;;;;;31.04;27.65;98685.78;7392902;19;20018;-88
2024/01/21 05:24:29;;;;;;;0.20;0.10;;;;;;;30.52;28.28;98700.47;7386756;19;20018;-87
2024/01/21 05:27:33;;;;;;;0.15;0.15;;;;;;;30.01;28.80;98696.38;7393508;19;20026;-89
2024/01/21 05:30:13;;;;;;;0.10;0.10;;;;;;;30.23;28.41;98697.53;7390788;19;20018;-86
2024/01/21 05:32:51;;;;;;;0.28;0.20;;;;;;;31.34;27.85;98698.72;7395246;19;20023;-87
2024/01/21 05:35:46;;;;;;;0.10;0.10;;;;;;;32.73;26.44;98699.13;7390859;19;20029;-87
2024/01/21 05:38:36;;;;;;;0.30;0.20;;;;;;;30.53;28.37;98713.47;7390872;19;20471;-87
2024/01/21 05:41:10;;;;;;;0.30;0.30;;;;;;;30.78;28.28;98721.88;7391073;19;20392;-87
2024/01/21 05:44:06;;;;;;;0.10;0.10;;;;;;;30.58;28.02;98738.16;7392000;19;20474;-86
2024/01/21 05:47:01;;;;;;;0.10;0.10;;;;;;;30.44;28.83;98743.91;7389671;19;20035;-87
2024/01/21 05:49:49;;;;;;;0.28;0.28;;;;;;;30.23;28.89;98732.00;7391490;19;20348;-87
2024/01/21 05:52:18;;;;;;;0.20;0.10;;;;;;;30.20;28.89;98731.16;7393542;19;20010;-87
2024/01/21 05:54:50;;;;;;;3.72;0.30;;;;;;;30.17;28.73;98735.28;7390177;19;20040;-87
2024/01/21 05:57:29;;;;;;;0.10;0.10;;;;;;;30.43;28.49;98750.31;7390850;19;20567;-87
2024/01/21 06:00:16;;;;;;;1.10;0.75;;;;;;;30.54;28.48;98738.66;7391831;19;20022;-87
2024/01/21 06:03:23;;;;;;;0.20;0.10;;;;;;;29.96;28.95;98756.47;7390592;19;20014;-87
2024/01/21 06:05:56;;;;;;;1.20;0.20;;;;;;;30.74;28.77;98759.06;7390300;19;20019;-87
2024/01/21 06:08:36;;;;;;;0.30;0.30;;;;;;;30.77;29.02;98754.91;7389099;19;20030;-87
2024/01/21 06:11:03;;;;;;;0.25;0.20;;;;;;;30.99;28.59;98753.13;7388186;19;20026;-87
2024/01/21 06:13:45;;;;;;;0.50;0.30;;;;;;;31.70;28.59;98748.63;7392539;19;20014;-87
2024/01/21 06:16:23;;;;;;;7.85;1.52;;;;;;;32.47;27.30;98747.03;7391509;19;20018;-87
2024/01/21 06:18:52;;;;;;;0.15;0.10;;;;;;;33.29;26.75;98748.97;7387502;19;20500;-86
2024/01/21 06:22:02;;;;;;;0.75;0.35;;;;;;;33.59;26.52;98747.31;7389669;19;20018;-87
2024/01/21 06:24:53;;;;;;;;;;;;;;;33.84;26.43;98743.91;7387147;19;20020;-87
2024/01/21 06:27:25;;;;;;;1.02;0.20;;;;;;;33.94;26.47;98743.56;7386539;19;20315;-86
2024/01/21 06:29:54;;;;;;;0.10;0.10;;;;;;;33.76;26.68;98739.97;7388819;19;20014;-87
2024/01/21 06:32:29;;;;;;;0.10;0.05;;;;;;;33.83;26.47;98745.31;7386942;19;20022;-87
2024/01/21 06:35:08;;;;;;;3.08;0.85;;;;;;;33.91;25.90;98748.50;7386240;19;20838;-87
2024/01/21 06:37:42;;;;;;;0.10;0.10;;;;;;;34.39;25.69;98749.53;7387999;19;20021;-87
2024/01/21 06:40:15;;;;;;;1.08;1.02;;;;;;;33.65;25.80;98741.00;7389804;19;20006;-87
2024/01/21 06:42:52;;;;;;;0.10;0.10;;;;;;;32.92;26.53;98738.84;7389741;19;20011;-87
2024/01/21 06:45:31;;;;;;;1.73;0.35;;;;;;;33.25;26.39;98743.03;7393430;19;20019;-87
2024/01/21 06:48:03;;;;;;;0.20;0.20;;;;;;;33.71;25.95;98744.88;7387917;19;20161;-87
2024/01/21 06:50:48;;;;;;;0.40;0.30;;;;;;;33.79;26.25;98762.50;7387609;19;20113;-87
2024/01/21 06:56:30;;;;;;;0.93;0.93;;;;;;;33.50;26.27;98765.69;7388877;19;20070;-87
2024/01/21 06:59:08;;;;;;;0.10;0.00;;;;;;;33.33;26.46;98775.13;7388273;19;20092;-87
2024/01/21 07:01:51;;;;;;;0.20;0.20;;;;;;;34.24;25.65;98777.19;7388813;19;20619;-90
2024/01/21 07:04:30;;;;;;;0.10;0.00;;;;;;;34.96;25.36;98772.44;7388562;19;20033;-89
2024/01/21 07:07:09;;;;;;;0.82;0.30;;;;;;;34.65;25.19;98775.75;7389292;19;20018;-85
2024/01/21 07:09:45;;;;;;;0.63;0.22;;;;;;;34.58;25.37;98774.81;7387480;19;20018;-86
2024/01/21 07:12:26;;;;;;;0.10;0.10;;;;;;;34.57;25.35;98758.09;7389793;19;20040;-86
2024/01/21 07:14:55;;;;;;;0.25;0.20;;;;;;;34.22;25.25;98768.44;7390600;19;20405;-86
2024/01/21 07:17:33;;;;;;;0.40;0.40;;;;;;;33.93;25.67;98768.06;7390289;19;20423;-86
2024/01/21 07:20:12;;;;;;;0.93;0.50;;;;;;;33.14;26.00;98767.88;7389426;19;20028;-86
2024/01/21 07:22:56;;;;;;;0.65;0.10;;;;;;;34.78;24.92;98763.19;7390018;19;20018;-86
2024/01/21 07:25:38;;;;;;;0.10;0.10;;;;;;;34.67;24.71;98756.31;7386879;19;20026;-86
2024/01/21 07:28:18;;;;;;;0.20;0.20;;;;;;;35.15;24.57;98751.38;7388723;19;20014;-86
2024/01/21 07:30:45;;;;;;;0.10;0.10;;;;;;;37.16;23.63;98745.53;7387652;19;20353;-85
2024/01/21 07:33:19;;;;;;;1.77;0.65;;;;;;;37.57;23.23;98749.34;7388771;19;20494;-85
2024/01/21 07:35:53;;;;;;;0.20;0.13;;;;;;;38.52;22.71;98746.97;7387748;19;20571;-85
2024/01/21 07:38:32;;;;;;;0.28;0.15;;;;;;;38.78;22.55;98751.78;7388968;19;20459;-84
2024/01/21 07:41:07;;;;;;;0.90;0.90;;;;;;;38.80;22.55;98754.72;7387029;19;20026;-85
2024/01/21 07:43:39;;;;;;;1.83;0.60;;;;;;;39.03;22.25;98753.69;7387731;19;20629;-84
2024/01/21 07:46:14;;;;;;;0.10;0.03;;;;;;;39.00;21.88;98766.72;7387122;19;20113;-85
2024/01/21 07:48:51;;;;;;;0.90;0.32;;;;;;;38.28;22.37;98766.88;7396798;19;20479;-84
2024/01/21 07:51:28;;;;;;;2.00;0.88;;;;;;;39.06;21.66;98775.56;7396242;19;20018;-84
2024/01/21 07:54:06;;;;;;;0.10;0.10;;;;;;;38.02;22.66;98792.50;7396939;19;20014;-84
2024/01/21 07:56:36;;;;;;;0.10;0.10;;;;;;;37.39;23.05;98801.22;7393809;19;20018;-85
2024/01/21 07:59:10;;;;;;;0.10;0.10;;;;;;;37.42;22.95;98794.81;7392484;19;20017;-85
2024/01/21 08:01:52;;;;;;;0.30;0.17;;;;;;;37.41;23.17;98807.09;7395958;19;20026;-85
2024/01/21 08:04:27;;;;;;;3.30;0.65;;;;;;;37.69;22.82;98813.56;7390865;19;20039;-84
2024/01/21 08:07:08;;;;;;;0.47;0.43;;;;;;;38.66;22.23;98811.25;7393420;19;20015;-84
2024/01/21 08:09:52;;;;;;;0.22;0.15;;;;;;;38.84;21.85;98799.22;7393546;19;20492;-84
2024/01/21 08:12:30;;;;;;;0.85;0.57;;;;;;;29.66;27.73;98812.25;7395471;19;20010;-84
2024/01/21 08:15:08;;;;;;;0.10;0.10;;;;;;;23.04;35.83;98830.16;7396151;19;20010;-84
2024/01/21 08:17:44;;;;;;;0.68;0.57;;;;;;;21.87;37.79;98831.69;7393056;19;20100;-85
2024/01/21 08:20:23;;;;;;;0.32;0.25;;;;;;;21.20;39.06;98832.09;7394516;19;20021;-85
2024/01/21 08:22:49;;;;;;;2.70;0.32;;;;;;;20.89;40.16;98829.38;7392607;19;20034;-84
2024/01/21 08:25:26;;;;;;;0.30;0.10;;;;;;;20.90;40.92;98832.94;7397391;19;20109;-84
2024/01/21 08:28:02;;;;;;;0.50;0.35;;;;;;;20.86;41.36;98816.34;7392544;19;20511;-84
2024/01/21 08:30:41;;;;;;;0.88;0.40;;;;;;;20.85;41.74;98834.66;7390403;19;20010;-85
2024/01/21 08:33:10;;;;;;;1.42;0.20;;;;;;;20.81;41.75;98825.78;7393391;19;20014;-83
2024/01/21 08:35:43;;;;;;;2.75;0.82;;;;;;;20.80;42.68;98826.38;7394716;19;20030;-83
2024/01/21 08:38:18;;;;;;;5.85;1.05;;;;;;;20.99;42.88;98829.50;7393088;19;20019;-84
2024/01/21 08:40:44;;;;;;;4.18;1.17;;;;;;;21.02;43.29;98829.13;7394762;19;20023;-84
2024/01/21 08:43:10;;;;;;;4.90;1.88;;;;;;;20.99;43.73;98821.00;7392623;19;20079;-83
2024/01/21 08:45:36;;;;;;;13.07;2.85;;;;;;;21.16;44.00;98831.75;7397010;19;20021;-84
2024/01/21 08:48:03;;;;;;;24.92;5.00;;;;;;;21.22;43.49;98835.13;7388110;19;20014;-84
2024/01/21 08:50:30;;;;;;;35.67;9.05;;;;;;;21.19;44.12;98831.34;7394989;19;20022;-83
2024/01/21 08:52:56;;;;;;;21.38;5.05;;;;;;;21.32;43.99;98838.81;7392914;19;20483;-84
2024/01/21 08:55:22;;;;;;;19.40;4.78;;;;;;;21.32;43.98;98844.50;7393653;19;20471;-83
2024/01/21 08:57:48;;;;;;;20.08;4.25;;;;;;;21.31;44.20;98845.84;7391273;19;20014;-84
2024/01/21 09:00:15;;;;;;;15.73;3.80;;;;;;;21.34;44.45;98842.59;7397213;19;20018;-84
2024/01/21 09:02:41;;;;;;;15.43;4.28;;;;;;;21.32;44.20;98844.50;7391561;19;20018;-84
2024/01/21 09:05:08;;;;;;;14.68;3.78;;;;;;;21.48;44.17;98834.59;7393696;19;20010;-83
2024/01/21 09:07:34;;;;;;;9.00;1.92;;;;;;;21.34;44.44;98830.50;7391732;19;20015;-84
2024/01/21 09:10:03;;;;;;;6.43;3.25;;;;;;;21.41;44.64;98818.38;7391767;19;20558;-84
2024/01/21 09:12:30;;;;;;;13.75;4.25;;;;;;;21.34;44.18;98831.25;7394982;19;20042;-84
2024/01/21 09:14:57;;;;;;;7.18;2.45;;;;;;;21.45;44.52;98830.06;7393816;19;20506;-84
2024/01/21 09:17:23;;;;;;;16.95;2.92;;;;;;;21.60;44.18;98833.56;7396693;19;20011;-84
2024/01/21 09:19:49;;;;;;;8.07;2.80;;;;;;;21.65;44.30;98843.94;7394148;19;20014;-84
2024/01/21 09:22:15;;;;;;;1.50;0.98;;;;;;;21.60;44.04;98838.47;7395512;19;20014;-84
2024/01/21 09:24:41;;;;;;;19.20;2.10;;;;;;;21.56;44.43;98835.28;7391512;19;20351;-84
2024/01/21 09:27:08;;;;;;;7.32;1.23;;;;;;;21.52;44.08;98851.94;7394302;19;20022;-83
2024/01/21 09:29:34;;;;;;;9.75;1.20;;;;;;;21.55;44.02;98856.47;7396236;19;20475;-84
2024/01/21 09:32:00;;;;;;;1.52;0.77;;;;;;;21.54;43.80;98854.94;7387649;19;20523;-84
2024/01/21 09:34:26;;;;;;;2.92;1.58;;;;;;;21.54;43.77;98866.28;7385961;19;20475;-83
2024/01/21 09:36:53;;;;;;;2.47;1.00;;;;;;;21.54;43.69;98869.13;7390295;19;20022;-84
2024/01/21 09:39:20;;;;;;;3.95;0.85;;;;;;;21.53;43.84;98867.59;7385602;19;20010;-85
2024/01/21 09:41:51;;;;;;;15.93;2.13;;;;;;;21.51;44.00;98878.75;7386024;19;20027;-85
2024/01/21 09:44:25;;;;;;;0.98;0.82;;;;;;;21.51;43.89;98867.44;7386665;19;20021;-85
2024/01/21 09:46:59;;;;;;;2.75;1.48;;;;;;;21.64;44.17;98864.31;7389237;19;20083;-85
2024/01/21 09:49:26;;;;;;;11.50;1.55;;;;;;;21.06;44.79;98863.50;7390536;19;20029;-85
2024/01/21 09:51:53;;;;;;;3.40;0.90;;;;;;;20.78;45.33;98866.56;7390414;19;20352;-85
2024/01/21 09:54:20;;;;;;;2.45;0.90;;;;;;;21.00;45.32;98857.25;7387934;19;20027;-85
2024/01/21 09:56:46;;;;;;;2.42;0.45;;;;;;;20.99;45.89;98852.91;7391228;19;20015;-85
2024/01/21 09:59:13;;;;;;;2.92;0.50;;;;;;;21.00;45.79;98851.59;7391017;19;20043;-85
2024/01/21 10:01:40;;;;;;;0.93;0.38;;;;;;;20.97;45.95;98843.47;7388412;19;20014;-85
2024/01/21 10:04:10;;;;;;;3.88;0.77;;;;;;;20.97;46.34;98849.91;7390918;19;20018;-85
2024/01/21 10:06:37;;;;;;;4.97;1.23;;;;;;;21.54;45.72;98850.03;7391044;19;20018;-85
2024/01/21 10:09:22;;;;;;;2.17;0.47;;;;;;;21.77;45.29;98847.03;7387349;19;20037;-84
2024/01/21 10:11:53;;;;;;;0.80;0.70;;;;;;;31.14;34.80;98838.75;7388307;19;20014;-85
2024/01/21 10:14:20;;;;;;;6.97;0.63;;;;;;;22.71;41.73;98851.59;7392156;19;20020;-86
2024/01/21 10:16:47;;;;;;;2.72;0.73;;;;;;;20.59;47.56;98843.63;7395743;19;20478;-86
2024/01/21 10:19:14;;;;;;;6.28;0.90;;;;;;;20.17;49.46;98845.31;7391763;19;20464;-86
2024/01/21 10:21:41;;;;;;;1.45;0.55;;;;;;;19.97;51.08;98835.72;7394111;19;20490;-86
2024/01/21 10:24:10;;;;;;;6.45;0.70;;;;;;;19.99;52.08;98818.22;7393235;19;20018;-86
2024/01/21 10:26:42;;;;;;;10.52;1.02;;;;;;;20.12;52.28;98795.41;7392827;19;20016;-85
2024/01/21 10:29:08;;;;;;;2.28;0.45;;;;;;;20.05;52.99;98796.16;7393345;19;20014;-85
2024/01/21 10:31:34;;;;;;;1.95;0.55;;;;;;;20.17;53.23;98809.34;7391477;19;20625;-84
2024/01/21 10:34:02;;;;;;;1.73;1.10;;;;;;;20.18;53.92;98815.75;7388496;19;20114;-84
2024/01/21 10:36:33;;;;;;;8.45;0.30;;;;;;;20.28;54.23;98808.22;7388995;19;20026;-84
2024/01/21 10:39:03;;;;;;;0.47;0.45;;;;;;;20.87;52.92;98795.22;7390093;19;20082;-84
2024/01/21 10:41:33;;;;;;;2.50;0.70;;;;;;;22.76;49.47;98805.13;7389416;19;20045;-84
2024/01/21 10:44:03;;;;;;;3.40;1.30;;;;;;;28.80;35.01;98807.31;7388611;19;20085;-85
2024/01/21 10:46:33;;;;;;;0.40;0.38;;;;;;;28.17;36.86;98800.69;7389900;19;20015;-84
2024/01/21 10:49:00;;;;;;;3.25;0.40;;;;;;;21.97;46.97;98800.63;7389319;19;20023;-84
2024/01/21 10:51:27;;;;;;;0.20;0.10;;;;;;;29.82;36.51;98775.81;7390105;19;20486;-85
2024/01/21 10:53:53;;;;;;;10.43;1.10;;;;;;;21.73;44.20;98787.94;7388310;19;20032;-84
2024/01/21 10:56:20;;;;;;;0.95;0.47;;;;;;;32.15;34.68;98768.66;7389314;19;20015;-85
2024/01/21 10:58:50;;;;;;;5.57;0.57;;;;;;;17.50;68.98;98800.03;7389070;19;20380;-85
2024/01/21 11:01:17;;;;;;;0.20;0.20;;;;;;;15.90;92.27;98821.72;7387291;19;20044;-85
2024/01/21 11:03:44;;;;;;;1.40;1.00;;;;;;;15.20;100.00;98812.63;7386895;19;20527;-85
2024/01/21 11:06:11;;;;;;;21.23;1.55;;;;;;;14.97;100.00;98833.84;7387513;19;20356;-84
2024/01/21 11:08:45;;;;;;;4.03;1.13;;;;;;;18.54;94.30;98804.22;7393570;19;20029;-84
2024/01/21 11:11:11;;;;;;;3.60;0.25;;;;;;;30.61;41.50;98774.22;7389568;19;20014;-85
2024/01/21 11:13:45;;;;;;;3.60;0.70;;;;;;;30.38;44.75;98771.59;7386821;19;20019;-85
2024/01/21 11:16:31;;;;;;;0.68;0.17;;;;;;;35.41;31.42;98752.22;7387816;19;20022;-84
2024/01/21 11:19:05;;;;;;;1.58;0.52;;;;;;;18.56;69.97;98771.34;7385236;19;20041;-85
2024/01/21 11:21:34;;;;;;;0.93;0.90;;;;;;;36.60;30.16;98731.75;7390369;19;20022;-84
2024/01/21 11:24:05;;;;;;;4.10;0.52;;;;;;;38.13;27.00;98712.75;7392668;19;20432;-85
2024/01/21 11:26:35;;;;;;;0.43;0.40;;;;;;;38.79;25.84;98695.03;7395767;19;20019;-85
2024/01/21 11:29:05;;;;;;;1.30;0.47;;;;;;;39.10;24.67;98688.22;7395821;19;20418;-85
2024/01/21 11:31:32;;;;;;;1.10;0.68;;;;;;;39.66;24.40;98694.88;7394916;19;20022;-85
2024/01/21 11:34:09;;;;;;;0.90;0.90;;;;;;;39.71;24.21;98667.25;7393357;19;20360;-85
2024/01/21 11:36:38;;;;;;;1.95;1.17;;;;;;;40.57;23.22;98632.41;7394622;19;20010;-85
2024/01/21 11:39:06;;;;;;;9.27;1.13;;;;;;;40.68;23.09;98615.69;7394177;19;20014;-85
2024/01/21 11:41:41;;;;;;;1.15;0.93;;;;;;;40.93;22.61;98634.16;7395849;19;20488;-85
2024/01/21 11:44:18;;;;;;;10.32;1.13;;;;;;;40.30;22.66;98654.06;7395200;19;20018;-84
2024/01/21 11:46:45;;;;;;;1.15;0.75;;;;;;;19.76;54.48;98690.28;7397143;19;20014;-85
2024/01/21 11:49:11;;;;;;;2.17;1.05;;;;;;;16.92;89.13;98704.72;7395866;19;20483;-85
2024/01/21 11:51:38;;;;;;;0.20;0.15;;;;;;;20.65;56.45;98684.97;7395102;19;20010;-84
2024/01/21 11:54:05;;;;;;;2.67;1.05;;;;;;;21.27;54.69;98647.25;7394048;19;20018;-84
2024/01/21 11:56:32;;;;;;;0.50;0.50;;;;;;;16.41;95.29;98657.28;7394269;19;20015;-85
2024/01/21 11:58:58;;;;;;;4.10;0.30;;;;;;;15.64;100.00;98664.50;7392752;19;20014;-84
2024/01/21 12:01:26;;;;;;;5.38;0.63;;;;;;;15.37;100.00;98665.75;7393645;19;20037;-87
2024/01/21 12:03:54;;;;;;;1.55;1.00;;;;;;;15.21;100.00;98667.53;7392655;19;20010;-84
2024/01/21 12:06:22;;;;;;;4.13;0.88;;;;;;;15.15;100.00;98670.44;7393729;19;20046;-84
2024/01/21 12:08:48;;;;;;;1.13;0.85;;;;;;;15.10;100.00;98674.09;7397377;19;20468;-85
2024/01/21 12:11:18;;;;;;;1.27;0.63;;;;;;;15.00;100.00;98675.78;7394957;19;20022;-85
2024/01/21 12:13:44;;;;;;;6.18;1.20;;;;;;;14.99;100.00;98663.06;7392997;19;20093;-84
2024/01/21 12:16:11;;;;;;;6.05;1.65;;;;;;;14.96;100.00;98663.38;7391492;19;20014;-85
2024/01/21 12:18:39;;;;;;;2.25;0.80;;;;;;;14.89;100.00;98659.16;7392231;19;20015;-85